sensor_id;sensor_type;location;lat;lon;timestamp;P1;durP1;ratioP1;P2;durP2;ratioP2
22673;SDS011;11504;43.334;21.918;2023-09-07T00:01:46;13.0;;;13.0;;
22673;SDS011;11504;43.334;21.918;2023-09-07T00:06:23;14.0;;;13.0;;
22673;SDS011;11504;43.334;21.918;2023-09-07T00:11:03;14.0;;;13.0;;
22673;SDS011;11504;43.334;21.918;2023-09-07T00:15:41;14.0;;;13.0;;
22673;SDS011;11504;43.334;21.918;2023-09-07T00:20:17;14.0;;;13.0;;
22673;SDS011;11504;43.334;21.918;2023-09-07T00:24:54;13.0;;;12.0;;
22673;SDS011;11504;43.334;21.918;2023-09-07T00:29:30;13.0;;;12.0;;
22673;SDS011;11504;43.334;21.918;2023-09-07T00:34:06;12.0;;;11.0;;
22673;SDS011;11504;43.334;21.918;2023-09-07T00:38:42;12.0;;;11.0;;
22673;SDS011;11504;43.334;21.918;2023-09-07T00:43:18;12.0;;;12.0;;
22673;SDS011;11504;43.334;21.918;2023-09-07T00:47:54;12.0;;;12.0;;
22673;SDS011;11504;43.334;21.918;2023-09-07T00:52:32;12.0;;;12.0;;
22673;SDS011;11504;43.334;21.918;2023-09-07T00:57:10;13.0;;;12.0;;
22673;SDS011;11504;43.334;21.918;2023-09-07T01:01:46;13.0;;;12.0;;
22673;SDS011;11504;43.334;21.918;2023-09-07T01:06:34;13.0;;;12.0;;
22673;SDS011;11504;43.334;21.918;2023-09-07T01:11:37;13.0;;;12.0;;
22673;SDS011;11504;43.334;21.918;2023-09-07T01:16:15;13.0;;;12.0;;
22673;SDS011;11504;43.334;21.918;2023-09-07T01:20:57;13.0;;;12.0;;
22673;SDS011;11504;43.334;21.918;2023-09-07T01:25:41;12.0;;;12.0;;
22673;SDS011;11504;43.334;21.918;2023-09-07T01:30:22;12.0;;;12.0;;
22673;SDS011;11504;43.334;21.918;2023-09-07T01:35:10;12.0;;;11.0;;
22673;SDS011;11504;43.334;21.918;2023-09-07T01:39:52;12.0;;;11.0;;
22673;SDS011;11504;43.334;21.918;2023-09-07T01:44:28;12.0;;;10.0;;
22673;SDS011;11504;43.334;21.918;2023-09-07T01:49:05;12.0;;;10.0;;
22673;SDS011;11504;43.334;21.918;2023-09-07T01:53:41;13.0;;;10.0;;
22673;SDS011;11504;43.334;21.918;2023-09-07T01:58:17;13.0;;;10.0;;
22673;SDS011;11504;43.334;21.918;2023-09-07T02:02:53;12.0;;;10.0;;
22673;SDS011;11504;43.334;21.918;2023-09-07T02:07:30;12.0;;;10.0;;
22673;SDS011;11504;43.334;21.918;2023-09-07T02:12:06;12.0;;;10.0;;
22673;SDS011;11504;43.334;21.918;2023-09-07T02:16:43;12.0;;;11.0;;
22673;SDS011;11504;43.334;21.918;2023-09-07T02:21:20;12.0;;;11.0;;
22673;SDS011;11504;43.334;21.918;2023-09-07T02:25:57;12.0;;;12.0;;
22673;SDS011;11504;43.334;21.918;2023-09-07T02:30:34;12.0;;;12.0;;
22673;SDS011;11504;43.334;21.918;2023-09-07T02:35:11;13.0;;;12.0;;
22673;SDS011;11504;43.334;21.918;2023-09-07T02:39:47;13.0;;;12.0;;
22673;SDS011;11504;43.334;21.918;2023-09-07T02:44:23;13.0;;;12.0;;
22673;SDS011;11504;43.334;21.918;2023-09-07T02:49:00;13.0;;;12.0;;
22673;SDS011;11504;43.334;21.918;2023-09-07T02:53:36;13.0;;;12.0;;
22673;SDS011;11504;43.334;21.918;2023-09-07T02:58:13;13.0;;;12.0;;
22673;SDS011;11504;43.334;21.918;2023-09-07T03:02:50;13.0;;;12.0;;
22673;SDS011;11504;43.334;21.918;2023-09-07T03:07:33;13.0;;;12.0;;
22673;SDS011;11504;43.334;21.918;2023-09-07T03:12:09;13.0;;;12.0;;
22673;SDS011;11504;43.334;21.918;2023-09-07T03:16:46;13.0;;;12.0;;
22673;SDS011;11504;43.334;21.918;2023-09-07T03:21:22;13.0;;;12.0;;
22673;SDS011;11504;43.334;21.918;2023-09-07T03:26:00;14.0;;;12.0;;
22673;SDS011;11504;43.334;21.918;2023-09-07T03:30:37;14.0;;;12.0;;
22673;SDS011;11504;43.334;21.918;2023-09-07T03:35:14;14.0;;;13.0;;
22673;SDS011;11504;43.334;21.918;2023-09-07T03:39:51;14.0;;;13.0;;
22673;SDS011;11504;43.334;21.918;2023-09-07T03:44:27;12.0;;;12.0;;
22673;SDS011;11504;43.334;21.918;2023-09-07T03:49:04;12.0;;;12.0;;
22673;SDS011;11504;43.334;21.918;2023-09-07T03:53:41;10.0;;;10.0;;
22673;SDS011;11504;43.334;21.918;2023-09-07T03:58:17;10.0;;;10.0;;
22673;SDS011;11504;43.334;21.918;2023-09-07T04:02:56;12.0;;;11.0;;
22673;SDS011;11504;43.334;21.918;2023-09-07T04:07:33;12.0;;;11.0;;
22673;SDS011;11504;43.334;21.918;2023-09-07T04:12:10;12.0;;;11.0;;
22673;SDS011;11504;43.334;21.918;2023-09-07T04:16:48;13.0;;;12.0;;
22673;SDS011;11504;43.334;21.918;2023-09-07T04:21:24;13.0;;;12.0;;
22673;SDS011;11504;43.334;21.918;2023-09-07T04:26:07;12.0;;;12.0;;
22673;SDS011;11504;43.334;21.918;2023-09-07T04:30:47;12.0;;;12.0;;
22673;SDS011;11504;43.334;21.918;2023-09-07T04:35:29;12.0;;;11.0;;
22673;SDS011;11504;43.334;21.918;2023-09-07T04:40:07;12.0;;;11.0;;
22673;SDS011;11504;43.334;21.918;2023-09-07T04:44:47;13.0;;;12.0;;
22673;SDS011;11504;43.334;21.918;2023-09-07T04:49:24;13.0;;;12.0;;
22673;SDS011;11504;43.334;21.918;2023-09-07T04:54:00;14.0;;;13.0;;
22673;SDS011;11504;43.334;21.918;2023-09-07T04:58:37;14.0;;;13.0;;
22673;SDS011;11504;43.334;21.918;2023-09-07T05:03:14;14.0;;;13.0;;
22673;SDS011;11504;43.334;21.918;2023-09-07T05:07:51;14.0;;;13.0;;
22673;SDS011;11504;43.334;21.918;2023-09-07T05:12:28;14.0;;;13.0;;
22673;SDS011;11504;43.334;21.918;2023-09-07T05:17:04;14.0;;;13.0;;
22673;SDS011;11504;43.334;21.918;2023-09-07T05:21:41;14.0;;;13.0;;
22673;SDS011;11504;43.334;21.918;2023-09-07T05:26:22;13.0;;;12.0;;
22673;SDS011;11504;43.334;21.918;2023-09-07T05:30:59;13.0;;;12.0;;
22673;SDS011;11504;43.334;21.918;2023-09-07T05:35:36;12.0;;;12.0;;
22673;SDS011;11504;43.334;21.918;2023-09-07T05:40:12;12.0;;;12.0;;
22673;SDS011;11504;43.334;21.918;2023-09-07T05:44:49;12.0;;;11.0;;
22673;SDS011;11504;43.334;21.918;2023-09-07T05:49:25;12.0;;;11.0;;
22673;SDS011;11504;43.334;21.918;2023-09-07T05:54:02;11.0;;;10.0;;
22673;SDS011;11504;43.334;21.918;2023-09-07T05:58:38;11.0;;;10.0;;
22673;SDS011;11504;43.334;21.918;2023-09-07T06:03:15;10.0;;;9.0;;
22673;SDS011;11504;43.334;21.918;2023-09-07T06:07:51;10.0;;;9.0;;
22673;SDS011;11504;43.334;21.918;2023-09-07T06:12:28;10.0;;;9.0;;
22673;SDS011;11504;43.334;21.918;2023-09-07T06:17:04;8.0;;;8.0;;
22673;SDS011;11504;43.334;21.918;2023-09-07T06:21:42;8.0;;;8.0;;
22673;SDS011;11504;43.334;21.918;2023-09-07T06:26:18;9.0;;;9.0;;
22673;SDS011;11504;43.334;21.918;2023-09-07T06:30:55;9.0;;;9.0;;
22673;SDS011;11504;43.334;21.918;2023-09-07T06:35:33;10.0;;;10.0;;
22673;SDS011;11504;43.334;21.918;2023-09-07T06:40:11;10.0;;;10.0;;
22673;SDS011;11504;43.334;21.918;2023-09-07T06:44:48;10.0;;;10.0;;
22673;SDS011;11504;43.334;21.918;2023-09-07T06:49:25;10.0;;;10.0;;
22673;SDS011;11504;43.334;21.918;2023-09-07T06:54:02;10.0;;;10.0;;
22673;SDS011;11504;43.334;21.918;2023-09-07T06:58:39;10.0;;;10.0;;
22673;SDS011;11504;43.334;21.918;2023-09-07T07:03:15;12.0;;;10.0;;
22673;SDS011;11504;43.334;21.918;2023-09-07T07:07:52;12.0;;;10.0;;
22673;SDS011;11504;43.334;21.918;2023-09-07T07:12:29;12.0;;;10.0;;
22673;SDS011;11504;43.334;21.918;2023-09-07T07:17:05;13.0;;;11.0;;
22673;SDS011;11504;43.334;21.918;2023-09-07T07:21:42;13.0;;;11.0;;
22673;SDS011;11504;43.334;21.918;2023-09-07T07:26:18;12.0;;;11.0;;
22673;SDS011;11504;43.334;21.918;2023-09-07T07:30:55;12.0;;;11.0;;
22673;SDS011;11504;43.334;21.918;2023-09-07T07:35:32;11.0;;;11.0;;
22673;SDS011;11504;43.334;21.918;2023-09-07T07:40:11;11.0;;;11.0;;
22673;SDS011;11504;43.334;21.918;2023-09-07T07:44:48;11.0;;;11.0;;
22673;SDS011;11504;43.334;21.918;2023-09-07T07:49:24;11.0;;;11.0;;
22673;SDS011;11504;43.334;21.918;2023-09-07T07:54:01;11.0;;;11.0;;
22673;SDS011;11504;43.334;21.918;2023-09-07T07:58:37;11.0;;;11.0;;
22673;SDS011;11504;43.334;21.918;2023-09-07T08:03:15;11.0;;;11.0;;
22673;SDS011;11504;43.334;21.918;2023-09-07T08:07:51;11.0;;;11.0;;
22673;SDS011;11504;43.334;21.918;2023-09-07T08:12:28;11.0;;;11.0;;
22673;SDS011;11504;43.334;21.918;2023-09-07T08:17:04;11.0;;;11.0;;
22673;SDS011;11504;43.334;21.918;2023-09-07T08:21:41;11.0;;;11.0;;
22673;SDS011;11504;43.334;21.918;2023-09-07T08:26:18;11.0;;;11.0;;
22673;SDS011;11504;43.334;21.918;2023-09-07T08:30:54;11.0;;;11.0;;
22673;SDS011;11504;43.334;21.918;2023-09-07T08:35:30;11.0;;;11.0;;
22673;SDS011;11504;43.334;21.918;2023-09-07T08:40:09;11.0;;;11.0;;
22673;SDS011;11504;43.334;21.918;2023-09-07T08:44:51;12.0;;;12.0;;
22673;SDS011;11504;43.334;21.918;2023-09-07T08:49:36;12.0;;;12.0;;
22673;SDS011;11504;43.334;21.918;2023-09-07T08:54:13;14.0;;;12.0;;
22673;SDS011;11504;43.334;21.918;2023-09-07T08:58:50;14.0;;;12.0;;
22673;SDS011;11504;43.334;21.918;2023-09-07T09:03:27;13.0;;;12.0;;
22673;SDS011;11504;43.334;21.918;2023-09-07T09:08:05;13.0;;;12.0;;
22673;SDS011;11504;43.334;21.918;2023-09-07T09:12:46;13.0;;;12.0;;
22673;SDS011;11504;43.334;21.918;2023-09-07T09:17:25;12.0;;;11.0;;
22673;SDS011;11504;43.334;21.918;2023-09-07T09:22:02;12.0;;;11.0;;
22673;SDS011;11504;43.334;21.918;2023-09-07T09:26:40;12.0;;;11.0;;
22673;SDS011;11504;43.334;21.918;2023-09-07T09:31:17;12.0;;;11.0;;
22673;SDS011;11504;43.334;21.918;2023-09-07T09:35:57;12.0;;;11.0;;
22673;SDS011;11504;43.334;21.918;2023-09-07T09:40:36;12.0;;;11.0;;
22673;SDS011;11504;43.334;21.918;2023-09-07T09:45:13;10.0;;;10.0;;
22673;SDS011;11504;43.334;21.918;2023-09-07T09:49:52;10.0;;;10.0;;
22673;SDS011;11504;43.334;21.918;2023-09-07T09:54:35;9.0;;;9.0;;
22673;SDS011;11504;43.334;21.918;2023-09-07T09:59:14;9.0;;;9.0;;
22673;SDS011;11504;43.334;21.918;2023-09-07T10:03:55;10.0;;;9.0;;
22673;SDS011;11504;43.334;21.918;2023-09-07T10:08:35;10.0;;;9.0;;
22673;SDS011;11504;43.334;21.918;2023-09-07T10:13:16;11.0;;;9.0;;
22673;SDS011;11504;43.334;21.918;2023-09-07T10:18:12;11.0;;;9.0;;
22673;SDS011;11504;43.334;21.918;2023-09-07T10:23:03;11.0;;;9.0;;
22673;SDS011;11504;43.334;21.918;2023-09-07T10:27:41;10.0;;;9.0;;
22673;SDS011;11504;43.334;21.918;2023-09-07T10:32:18;10.0;;;9.0;;
22673;SDS011;11504;43.334;21.918;2023-09-07T10:36:56;9.0;;;9.0;;
22673;SDS011;11504;43.334;21.918;2023-09-07T10:41:43;9.0;;;9.0;;
22673;SDS011;11504;43.334;21.918;2023-09-07T10:46:23;9.0;;;8.0;;
22673;SDS011;11504;43.334;21.918;2023-09-07T10:51:00;9.0;;;8.0;;
22673;SDS011;11504;43.334;21.918;2023-09-07T10:55:37;9.0;;;8.0;;
22673;SDS011;11504;43.334;21.918;2023-09-07T11:00:16;9.0;;;8.0;;
22673;SDS011;11504;43.334;21.918;2023-09-07T11:04:52;10.0;;;8.0;;
22673;SDS011;11504;43.334;21.918;2023-09-07T11:09:30;10.0;;;8.0;;
22673;SDS011;11504;43.334;21.918;2023-09-07T11:14:07;10.0;;;9.0;;
22673;SDS011;11504;43.334;21.918;2023-09-07T11:18:45;10.0;;;9.0;;
22673;SDS011;11504;43.334;21.918;2023-09-07T11:23:22;10.0;;;8.0;;
22673;SDS011;11504;43.334;21.918;2023-09-07T11:27:58;10.0;;;8.0;;
22673;SDS011;11504;43.334;21.918;2023-09-07T11:32:36;10.0;;;8.0;;
22673;SDS011;11504;43.334;21.918;2023-09-07T11:37:13;9.0;;;8.0;;
22673;SDS011;11504;43.334;21.918;2023-09-07T11:41:49;9.0;;;8.0;;
22673;SDS011;11504;43.334;21.918;2023-09-07T11:46:26;10.0;;;8.0;;
22673;SDS011;11504;43.334;21.918;2023-09-07T11:51:03;10.0;;;8.0;;
22673;SDS011;11504;43.334;21.918;2023-09-07T11:55:39;10.0;;;9.0;;
22673;SDS011;11504;43.334;21.918;2023-09-07T12:00:18;10.0;;;9.0;;
22673;SDS011;11504;43.334;21.918;2023-09-07T12:04:56;10.0;;;8.0;;
22673;SDS011;11504;43.334;21.918;2023-09-07T12:09:33;10.0;;;8.0;;
22673;SDS011;11504;43.334;21.918;2023-09-07T12:14:09;9.0;;;8.0;;
22673;SDS011;11504;43.334;21.918;2023-09-07T12:18:46;9.0;;;8.0;;
22673;SDS011;11504;43.334;21.918;2023-09-07T12:23:23;8.0;;;8.0;;
22673;SDS011;11504;43.334;21.918;2023-09-07T12:27:59;8.0;;;8.0;;
22673;SDS011;11504;43.334;21.918;2023-09-07T12:32:36;8.0;;;8.0;;
22673;SDS011;11504;43.334;21.918;2023-09-07T12:37:12;8.0;;;8.0;;
22673;SDS011;11504;43.334;21.918;2023-09-07T12:41:49;8.0;;;8.0;;
22673;SDS011;11504;43.334;21.918;2023-09-07T12:46:25;8.0;;;8.0;;
22673;SDS011;11504;43.334;21.918;2023-09-07T12:51:02;8.0;;;8.0;;
22673;SDS011;11504;43.334;21.918;2023-09-07T12:55:38;9.0;;;9.0;;
22673;SDS011;11504;43.334;21.918;2023-09-07T13:00:15;9.0;;;9.0;;
22673;SDS011;11504;43.334;21.918;2023-09-07T13:04:54;10.0;;;9.0;;
22673;SDS011;11504;43.334;21.918;2023-09-07T13:09:31;10.0;;;9.0;;
22673;SDS011;11504;43.334;21.918;2023-09-07T13:14:07;10.0;;;9.0;;
22673;SDS011;11504;43.334;21.918;2023-09-07T13:18:44;10.0;;;9.0;;
22673;SDS011;11504;43.334;21.918;2023-09-07T13:23:20;10.0;;;9.0;;
22673;SDS011;11504;43.334;21.918;2023-09-07T13:27:57;10.0;;;8.0;;
22673;SDS011;11504;43.334;21.918;2023-09-07T13:32:33;10.0;;;8.0;;
22673;SDS011;11504;43.334;21.918;2023-09-07T13:37:10;9.0;;;8.0;;
22673;SDS011;11504;43.334;21.918;2023-09-07T13:41:46;9.0;;;8.0;;
22673;SDS011;11504;43.334;21.918;2023-09-07T13:46:23;8.0;;;8.0;;
22673;SDS011;11504;43.334;21.918;2023-09-07T13:50:59;8.0;;;8.0;;
22673;SDS011;11504;43.334;21.918;2023-09-07T13:55:35;8.0;;;8.0;;
22673;SDS011;11504;43.334;21.918;2023-09-07T14:00:13;8.0;;;8.0;;
22673;SDS011;11504;43.334;21.918;2023-09-07T14:04:50;8.0;;;8.0;;
22673;SDS011;11504;43.334;21.918;2023-09-07T14:09:27;8.0;;;8.0;;
22673;SDS011;11504;43.334;21.918;2023-09-07T14:14:04;9.0;;;8.0;;
22673;SDS011;11504;43.334;21.918;2023-09-07T14:18:40;9.0;;;8.0;;
22673;SDS011;11504;43.334;21.918;2023-09-07T14:23:17;9.0;;;8.0;;
22673;SDS011;11504;43.334;21.918;2023-09-07T14:27:55;10.0;;;9.0;;
22673;SDS011;11504;43.334;21.918;2023-09-07T14:32:31;10.0;;;9.0;;
22673;SDS011;11504;43.334;21.918;2023-09-07T14:37:08;10.0;;;10.0;;
22673;SDS011;11504;43.334;21.918;2023-09-07T14:41:45;10.0;;;10.0;;
22673;SDS011;11504;43.334;21.918;2023-09-07T14:46:22;10.0;;;10.0;;
22673;SDS011;11504;43.334;21.918;2023-09-07T14:51:00;10.0;;;10.0;;
22673;SDS011;11504;43.334;21.918;2023-09-07T14:55:37;10.0;;;10.0;;
22673;SDS011;11504;43.334;21.918;2023-09-07T15:00:14;10.0;;;10.0;;
22673;SDS011;11504;43.334;21.918;2023-09-07T15:04:51;10.0;;;10.0;;
22673;SDS011;11504;43.334;21.918;2023-09-07T15:09:28;10.0;;;10.0;;
22673;SDS011;11504;43.334;21.918;2023-09-07T15:14:04;11.0;;;10.0;;
22673;SDS011;11504;43.334;21.918;2023-09-07T15:18:41;11.0;;;10.0;;
22673;SDS011;11504;43.334;21.918;2023-09-07T15:23:17;11.0;;;10.0;;
22673;SDS011;11504;43.334;21.918;2023-09-07T15:27:54;10.0;;;10.0;;
22673;SDS011;11504;43.334;21.918;2023-09-07T15:32:31;10.0;;;10.0;;
22673;SDS011;11504;43.334;21.918;2023-09-07T15:37:08;10.0;;;9.0;;
22673;SDS011;11504;43.334;21.918;2023-09-07T15:41:44;10.0;;;9.0;;
22673;SDS011;11504;43.334;21.918;2023-09-07T15:46:22;11.0;;;10.0;;
22673;SDS011;11504;43.334;21.918;2023-09-07T15:51:00;11.0;;;10.0;;
22673;SDS011;11504;43.334;21.918;2023-09-07T15:55:37;12.0;;;11.0;;
22673;SDS011;11504;43.334;21.918;2023-09-07T16:00:15;12.0;;;11.0;;
22673;SDS011;11504;43.334;21.918;2023-09-07T16:04:52;11.0;;;10.0;;
22673;SDS011;11504;43.334;21.918;2023-09-07T16:09:29;11.0;;;10.0;;
22673;SDS011;11504;43.334;21.918;2023-09-07T16:14:05;10.0;;;10.0;;
22673;SDS011;11504;43.334;21.918;2023-09-07T16:18:41;10.0;;;10.0;;
22673;SDS011;11504;43.334;21.918;2023-09-07T16:23:18;10.0;;;10.0;;
22673;SDS011;11504;43.334;21.918;2023-09-07T16:27:54;10.0;;;10.0;;
22673;SDS011;11504;43.334;21.918;2023-09-07T16:32:30;10.0;;;10.0;;
22673;SDS011;11504;43.334;21.918;2023-09-07T16:37:07;10.0;;;9.0;;
22673;SDS011;11504;43.334;21.918;2023-09-07T16:41:43;10.0;;;9.0;;
22673;SDS011;11504;43.334;21.918;2023-09-07T16:46:19;10.0;;;9.0;;
22673;SDS011;11504;43.334;21.918;2023-09-07T16:50:55;10.0;;;9.0;;
22673;SDS011;11504;43.334;21.918;2023-09-07T16:55:32;10.0;;;9.0;;
22673;SDS011;11504;43.334;21.918;2023-09-07T17:00:10;10.0;;;9.0;;
22673;SDS011;11504;43.334;21.918;2023-09-07T17:04:49;10.0;;;8.0;;
22673;SDS011;11504;43.334;21.918;2023-09-07T17:09:26;10.0;;;8.0;;
22673;SDS011;11504;43.334;21.918;2023-09-07T17:14:02;9.0;;;8.0;;
22673;SDS011;11504;43.334;21.918;2023-09-07T17:18:39;9.0;;;8.0;;
22673;SDS011;11504;43.334;21.918;2023-09-07T17:23:16;9.0;;;8.0;;
22673;SDS011;11504;43.334;21.918;2023-09-07T17:27:53;10.0;;;9.0;;
22673;SDS011;11504;43.334;21.918;2023-09-07T17:32:29;10.0;;;9.0;;
22673;SDS011;11504;43.334;21.918;2023-09-07T17:37:06;11.0;;;10.0;;
22673;SDS011;11504;43.334;21.918;2023-09-07T17:41:42;11.0;;;10.0;;
22673;SDS011;11504;43.334;21.918;2023-09-07T17:46:19;10.0;;;10.0;;
22673;SDS011;11504;43.334;21.918;2023-09-07T17:50:58;10.0;;;10.0;;
22673;SDS011;11504;43.334;21.918;2023-09-07T17:55:35;10.0;;;9.0;;
22673;SDS011;11504;43.334;21.918;2023-09-07T18:00:14;10.0;;;9.0;;
22673;SDS011;11504;43.334;21.918;2023-09-07T18:04:55;11.0;;;10.0;;
22673;SDS011;11504;43.334;21.918;2023-09-07T18:09:33;11.0;;;10.0;;
22673;SDS011;11504;43.334;21.918;2023-09-07T18:14:10;12.0;;;11.0;;
22673;SDS011;11504;43.334;21.918;2023-09-07T18:18:47;12.0;;;11.0;;
22673;SDS011;11504;43.334;21.918;2023-09-07T18:23:23;12.0;;;11.0;;
22673;SDS011;11504;43.334;21.918;2023-09-07T18:28:02;11.0;;;10.0;;
22673;SDS011;11504;43.334;21.918;2023-09-07T18:32:40;11.0;;;10.0;;
22673;SDS011;11504;43.334;21.918;2023-09-07T18:37:16;10.0;;;10.0;;
22673;SDS011;11504;43.334;21.918;2023-09-07T18:41:53;10.0;;;10.0;;
22673;SDS011;11504;43.334;21.918;2023-09-07T18:46:29;11.0;;;11.0;;
22673;SDS011;11504;43.334;21.918;2023-09-07T18:51:07;11.0;;;11.0;;
22673;SDS011;11504;43.334;21.918;2023-09-07T18:55:44;12.0;;;12.0;;
22673;SDS011;11504;43.334;21.918;2023-09-07T19:00:20;12.0;;;12.0;;
22673;SDS011;11504;43.334;21.918;2023-09-07T19:04:56;12.0;;;12.0;;
22673;SDS011;11504;43.334;21.918;2023-09-07T19:09:33;12.0;;;12.0;;
22673;SDS011;11504;43.334;21.918;2023-09-07T19:14:09;13.0;;;12.0;;
22673;SDS011;11504;43.334;21.918;2023-09-07T19:18:45;13.0;;;12.0;;
22673;SDS011;11504;43.334;21.918;2023-09-07T19:23:21;13.0;;;12.0;;
22673;SDS011;11504;43.334;21.918;2023-09-07T19:27:57;14.0;;;13.0;;
22673;SDS011;11504;43.334;21.918;2023-09-07T19:32:34;14.0;;;13.0;;
22673;SDS011;11504;43.334;21.918;2023-09-07T19:37:11;15.0;;;14.0;;
22673;SDS011;11504;43.334;21.918;2023-09-07T19:41:48;15.0;;;14.0;;
22673;SDS011;11504;43.334;21.918;2023-09-07T19:46:24;14.0;;;13.0;;
22673;SDS011;11504;43.334;21.918;2023-09-07T19:51:07;14.0;;;13.0;;
22673;SDS011;11504;43.334;21.918;2023-09-07T19:55:47;13.0;;;12.0;;
22673;SDS011;11504;43.334;21.918;2023-09-07T20:00:24;13.0;;;12.0;;
22673;SDS011;11504;43.334;21.918;2023-09-07T20:05:01;12.0;;;12.0;;
22673;SDS011;11504;43.334;21.918;2023-09-07T20:09:39;12.0;;;12.0;;
22673;SDS011;11504;43.334;21.918;2023-09-07T20:14:17;11.0;;;11.0;;
22673;SDS011;11504;43.334;21.918;2023-09-07T20:18:55;11.0;;;11.0;;
22673;SDS011;11504;43.334;21.918;2023-09-07T20:23:31;11.0;;;11.0;;
22673;SDS011;11504;43.334;21.918;2023-09-07T20:28:08;11.0;;;11.0;;
22673;SDS011;11504;43.334;21.918;2023-09-07T20:32:44;11.0;;;11.0;;
22673;SDS011;11504;43.334;21.918;2023-09-07T20:37:21;11.0;;;11.0;;
22673;SDS011;11504;43.334;21.918;2023-09-07T20:41:58;11.0;;;11.0;;
22673;SDS011;11504;43.334;21.918;2023-09-07T20:46:34;12.0;;;12.0;;
22673;SDS011;11504;43.334;21.918;2023-09-07T20:51:11;12.0;;;12.0;;
22673;SDS011;11504;43.334;21.918;2023-09-07T20:55:48;12.0;;;12.0;;
22673;SDS011;11504;43.334;21.918;2023-09-07T21:00:26;12.0;;;12.0;;
22673;SDS011;11504;43.334;21.918;2023-09-07T21:05:03;12.0;;;12.0;;
22673;SDS011;11504;43.334;21.918;2023-09-07T21:09:43;12.0;;;12.0;;
22673;SDS011;11504;43.334;21.918;2023-09-07T21:14:19;12.0;;;11.0;;
22673;SDS011;11504;43.334;21.918;2023-09-07T21:18:55;12.0;;;11.0;;
22673;SDS011;11504;43.334;21.918;2023-09-07T21:23:31;12.0;;;11.0;;
22673;SDS011;11504;43.334;21.918;2023-09-07T21:28:08;12.0;;;12.0;;
22673;SDS011;11504;43.334;21.918;2023-09-07T21:32:45;12.0;;;12.0;;
22673;SDS011;11504;43.334;21.918;2023-09-07T21:37:21;12.0;;;12.0;;
22673;SDS011;11504;43.334;21.918;2023-09-07T21:41:58;12.0;;;12.0;;
22673;SDS011;11504;43.334;21.918;2023-09-07T21:46:35;12.0;;;12.0;;
22673;SDS011;11504;43.334;21.918;2023-09-07T21:51:12;12.0;;;12.0;;
22673;SDS011;11504;43.334;21.918;2023-09-07T21:55:48;13.0;;;12.0;;
22673;SDS011;11504;43.334;21.918;2023-09-07T22:00:24;13.0;;;12.0;;
22673;SDS011;11504;43.334;21.918;2023-09-07T22:05:01;14.0;;;13.0;;
22673;SDS011;11504;43.334;21.918;2023-09-07T22:09:38;14.0;;;13.0;;
22673;SDS011;11504;43.334;21.918;2023-09-07T22:14:15;14.0;;;14.0;;
22673;SDS011;11504;43.334;21.918;2023-09-07T22:18:52;14.0;;;14.0;;
22673;SDS011;11504;43.334;21.918;2023-09-07T22:23:29;14.0;;;14.0;;
22673;SDS011;11504;43.334;21.918;2023-09-07T22:28:06;14.0;;;14.0;;
22673;SDS011;11504;43.334;21.918;2023-09-07T22:32:43;14.0;;;14.0;;
22673;SDS011;11504;43.334;21.918;2023-09-07T22:37:20;14.0;;;13.0;;
22673;SDS011;11504;43.334;21.918;2023-09-07T22:41:56;14.0;;;13.0;;
22673;SDS011;11504;43.334;21.918;2023-09-07T22:46:34;14.0;;;13.0;;
22673;SDS011;11504;43.334;21.918;2023-09-07T22:51:10;14.0;;;13.0;;
22673;SDS011;11504;43.334;21.918;2023-09-07T22:55:48;14.0;;;13.0;;
22673;SDS011;11504;43.334;21.918;2023-09-07T23:00:27;14.0;;;13.0;;
22673;SDS011;11504;43.334;21.918;2023-09-07T23:05:05;13.0;;;12.0;;
22673;SDS011;11504;43.334;21.918;2023-09-07T23:09:44;13.0;;;12.0;;
22673;SDS011;11504;43.334;21.918;2023-09-07T23:14:20;12.0;;;12.0;;
22673;SDS011;11504;43.334;21.918;2023-09-07T23:18:57;12.0;;;12.0;;
22673;SDS011;11504;43.334;21.918;2023-09-07T23:23:33;12.0;;;12.0;;
22673;SDS011;11504;43.334;21.918;2023-09-07T23:28:10;12.0;;;12.0;;
22673;SDS011;11504;43.334;21.918;2023-09-07T23:32:47;12.0;;;12.0;;
22673;SDS011;11504;43.334;21.918;2023-09-07T23:37:23;13.0;;;12.0;;
22673;SDS011;11504;43.334;21.918;2023-09-07T23:42:00;13.0;;;12.0;;
22673;SDS011;11504;43.334;21.918;2023-09-07T23:46:37;12.0;;;11.0;;
22673;SDS011;11504;43.334;21.918;2023-09-07T23:51:14;12.0;;;11.0;;
22673;SDS011;11504;43.334;21.918;2023-09-07T23:55:51;10.0;;;10.0;;
